createdAt,value
2023-05-01T00:09:44.984Z,3.32
2023-05-01T00:14:14.655Z,3.26
2023-05-01T00:44:56.333Z,2.95
2023-05-01T00:49:25.567Z,2.91
2023-05-01T01:16:16.311Z,2.79
2023-05-01T01:20:51.383Z,2.75
2023-05-01T01:25:17.965Z,2.72
2023-05-01T01:30:01.740Z,2.67
2023-05-01T01:34:42.532Z,2.60
2023-05-01T02:00:51.209Z,2.57
2023-05-01T02:05:19.849Z,2.52
2023-05-01T02:09:49.279Z,2.47
2023-05-01T02:18:13.938Z,2.50
2023-05-01T02:22:43.423Z,2.47
2023-05-01T02:27:12.582Z,2.46
2023-05-01T02:31:43.132Z,2.44
2023-05-01T02:49:03.197Z,2.72
2023-05-01T02:53:32.461Z,2.83
2023-05-01T03:10:54.478Z,2.99
2023-05-01T03:15:23.181Z,2.99
2023-05-01T03:19:51.805Z,2.95
2023-05-01T03:45:57.724Z,2.83
2023-05-01T04:08:38.436Z,4.84
2023-05-01T04:13:07.070Z,5.28
2023-05-01T04:17:36.851Z,5.55
2023-05-01T04:22:06.654Z,5.84
2023-05-01T04:39:11.158Z,7.14
2023-05-01T04:43:34.710Z,7.38
2023-05-01T05:00:52.194Z,8.26
2023-05-01T05:05:20.828Z,8.44
2023-05-01T05:09:49.976Z,8.53
2023-05-01T05:31:26.230Z,9.10
2023-05-01T05:35:56.470Z,9.21
2023-05-01T06:02:09.416Z,10.16
2023-05-01T06:06:38.894Z,10.38
2023-05-01T06:24:05.359Z,11.28
2023-05-01T06:28:35.657Z,11.55
2023-05-01T06:50:15.548Z,12.56
2023-05-01T06:54:36.743Z,12.70
2023-05-01T06:59:07.634Z,12.88
2023-05-01T07:03:29.712Z,13.13
2023-05-01T07:25:01.225Z,14.14
2023-05-01T07:29:30.295Z,14.18
2023-05-01T07:33:59.046Z,14.31
2023-05-01T07:38:30.381Z,14.48
2023-05-01T07:42:47.646Z,14.58
2023-05-01T07:47:04.383Z,14.67
2023-05-01T08:08:19.162Z,15.78
2023-05-01T08:12:48.456Z,16.02
2023-05-01T08:17:18.319Z,16.12
2023-05-01T08:21:35.674Z,16.33
2023-05-01T08:47:31.174Z,17.27
2023-05-01T08:51:48.165Z,17.46
2023-05-01T08:56:06.996Z,17.56
2023-05-01T09:00:07.614Z,17.65
2023-05-01T09:04:14.802Z,17.79
2023-05-01T09:08:30.365Z,17.86
2023-05-01T09:12:59.109Z,18.06
2023-05-01T09:17:16.786Z,18.19
2023-05-01T09:21:38.811Z,18.45
2023-05-01T09:43:17.271Z,19.16
2023-05-01T09:47:46.324Z,19.32
2023-05-01T09:52:24.875Z,19.49
2023-05-01T10:09:58.576Z,20.03
2023-05-01T10:14:17.851Z,20.00
2023-05-01T10:18:37.717Z,20.06
2023-05-01T10:22:49.396Z,20.14
2023-05-01T10:27:11.750Z,20.29
2023-05-01T11:01:21.606Z,21.19
2023-05-01T11:05:44.483Z,21.20
2023-05-01T11:10:21.689Z,21.28
2023-05-01T11:15:08.587Z,21.39
2023-05-01T11:19:31.049Z,21.52
2023-05-01T11:23:54.102Z,21.66
2023-05-01T11:28:16.443Z,21.93
2023-05-01T12:06:48.992Z,22.86
2023-05-01T12:11:06.573Z,22.94
2023-05-01T12:15:36.615Z,23.11
2023-05-01T12:20:11.364Z,23.22
2023-05-01T12:24:21.399Z,23.09
2023-05-01T12:41:38.898Z,23.45
2023-05-01T12:45:46.724Z,23.60
2023-05-01T12:50:12.986Z,23.65
2023-05-01T12:54:33.789Z,23.63
2023-05-01T13:16:22.173Z,23.37
2023-05-01T13:20:39.394Z,23.23
2023-05-01T13:25:17.023Z,22.97
2023-05-01T13:29:46.270Z,22.71
2023-05-01T13:34:00.871Z,22.43
2023-05-01T14:07:07.122Z,22.77
2023-05-01T14:11:23.088Z,22.70
2023-05-01T14:15:40.528Z,22.64
2023-05-01T14:37:11.473Z,22.47
2023-05-01T14:41:29.145Z,22.20
2023-05-01T14:45:48.477Z,22.04
2023-05-01T15:11:02.169Z,23.12
2023-05-01T15:15:06.506Z,22.71
2023-05-01T15:19:19.912Z,22.37
2023-05-01T15:23:52.052Z,22.08
2023-05-01T15:28:13.123Z,22.04
2023-05-01T15:32:19.388Z,22.27
2023-05-01T16:02:51.957Z,21.58
2023-05-01T16:06:51.754Z,21.65
2023-05-01T16:11:22.550Z,21.67
2023-05-01T16:32:24.378Z,21.39
2023-05-01T16:36:42.701Z,21.31
2023-05-01T16:40:44.034Z,21.22
2023-05-01T16:44:57.044Z,21.07
2023-05-01T16:49:15.424Z,20.85
2023-05-01T16:53:39.943Z,20.61
2023-05-01T16:57:54.456Z,20.36
2023-05-01T17:02:07.086Z,20.08
2023-05-01T17:06:14.274Z,19.75
2023-05-01T17:32:52.634Z,18.30
2023-05-01T17:37:22.516Z,18.09
2023-05-01T17:58:38.714Z,17.10
2023-05-01T18:02:51.353Z,16.89
2023-05-01T18:07:21.626Z,16.67
2023-05-01T18:32:24.746Z,15.55
2023-05-01T18:36:48.320Z,15.31
2023-05-01T18:40:49.826Z,15.13
2023-05-01T19:08:35.156Z,15.00
2023-05-01T19:13:04.756Z,14.70
2023-05-01T19:34:39.567Z,13.68
2023-05-01T19:38:57.195Z,13.53
2023-05-01T19:43:37.532Z,13.40
2023-05-01T20:02:14.380Z,13.02
2023-05-01T20:06:45.826Z,12.91
2023-05-01T20:24:15.700Z,12.57
2023-05-01T20:28:44.561Z,12.47
2023-05-01T20:33:15.294Z,12.40
2023-05-01T20:59:11.924Z,12.08
2023-05-01T21:03:41.066Z,12.03
2023-05-01T21:08:11.551Z,11.98
2023-05-01T21:25:24.472Z,11.91
2023-05-01T21:29:53.710Z,11.84
2023-05-01T21:34:27.116Z,11.78
2023-05-01T21:55:59.227Z,11.48
2023-05-01T22:00:28.056Z,11.42
2023-05-01T22:04:57.701Z,11.38
2023-05-01T22:09:28.408Z,11.34
2023-05-01T22:13:58.501Z,11.29
2023-05-01T22:31:18.280Z,11.15
2023-05-01T22:35:47.217Z,11.12
2023-05-01T22:40:04.636Z,11.06
2023-05-01T23:08:07.514Z,11.62
2023-05-01T23:12:36.823Z,11.34
2023-05-01T23:17:05.689Z,11.11
2023-05-01T23:38:58.152Z,10.63
2023-05-01T23:43:26.943Z,10.57
2023-05-01T23:47:56.128Z,10.49
